createdAt,value
2023-02-22T00:01:51.268Z,8.60
2023-02-22T00:04:21.350Z,7.33
2023-02-22T00:06:50.023Z,6.80
2023-02-22T00:09:20.774Z,6.47
2023-02-22T00:11:49.546Z,8.23
2023-02-22T00:14:20.410Z,5.17
2023-02-22T00:16:48.323Z,9.47
2023-02-22T00:19:15.891Z,5.03
2023-02-22T00:21:44.886Z,7.10
2023-02-22T00:24:23.294Z,6.90
2023-02-22T00:26:56.429Z,4.80
2023-02-22T00:29:25.648Z,4.60
2023-02-22T00:31:54.088Z,6.17
2023-02-22T00:34:24.150Z,7.77
2023-02-22T00:36:52.387Z,5.20
2023-02-22T00:39:20.298Z,4.30
2023-02-22T00:41:48.070Z,4.80
2023-02-22T00:44:15.762Z,9.13
2023-02-22T00:46:43.257Z,5.87
2023-02-22T00:49:10.734Z,6.50
2023-02-22T00:51:38.424Z,7.77
2023-02-22T00:54:05.937Z,5.77
2023-02-22T00:56:35.244Z,8.07
2023-02-22T00:59:03.582Z,5.93
2023-02-22T01:01:31.998Z,6.20
2023-02-22T01:03:59.511Z,5.57
2023-02-22T01:06:27.141Z,4.87
2023-02-22T01:08:54.670Z,5.60
2023-02-22T01:11:22.425Z,6.43
2023-02-22T01:13:49.865Z,8.77
2023-02-22T01:16:17.432Z,7.30
2023-02-22T01:18:44.971Z,7.10
2023-02-22T01:21:13.053Z,7.37
2023-02-22T01:23:44.241Z,5.17
2023-02-22T01:26:11.794Z,4.83
2023-02-22T01:28:39.717Z,5.73
2023-02-22T01:31:07.301Z,8.83
2023-02-22T01:33:34.784Z,5.63
2023-02-22T01:36:02.293Z,7.87
2023-02-22T01:38:29.772Z,8.90
2023-02-22T01:40:57.250Z,4.53
2023-02-22T01:43:33.177Z,4.77
2023-02-22T01:46:26.715Z,10.43
2023-02-22T01:49:06.616Z,5.03
2023-02-22T01:51:40.809Z,5.53
2023-02-22T01:54:24.227Z,9.50
2023-02-22T01:57:16.405Z,6.63
2023-02-22T01:59:48.463Z,5.77
2023-02-22T02:02:17.238Z,4.83
2023-02-22T02:04:45.204Z,7.03
2023-02-22T02:07:15.342Z,8.93
2023-02-22T02:09:53.430Z,7.23
2023-02-22T02:12:23.383Z,4.10
2023-02-22T02:14:51.960Z,4.57
2023-02-22T02:17:23.847Z,6.87
2023-02-22T02:20:17.628Z,10.13
2023-02-22T02:23:22.697Z,10.27
2023-02-22T02:26:10.391Z,9.67
2023-02-22T02:29:31.730Z,11.63
2023-02-22T02:32:11.404Z,6.73
2023-02-22T02:35:30.886Z,8.73
2023-02-22T02:38:21.905Z,9.20
2023-02-22T02:41:12.833Z,8.67
2023-02-22T02:43:54.408Z,9.80
2023-02-22T02:46:26.993Z,7.87
2023-02-22T02:49:06.406Z,7.23
2023-02-22T02:51:41.292Z,5.40
2023-02-22T02:54:11.081Z,13.03
2023-02-22T02:56:38.915Z,10.93
2023-02-22T02:59:26.631Z,12.63
2023-02-22T03:02:24.867Z,21.93
2023-02-22T03:05:01.162Z,32.73
2023-02-22T03:07:58.634Z,12.07
2023-02-22T03:10:56.965Z,9.47
2023-02-22T03:13:55.716Z,10.23
2023-02-22T03:16:56.871Z,6.57
2023-02-22T03:19:46.090Z,9.23
2023-02-22T03:22:44.195Z,14.83
2023-02-22T03:25:20.619Z,10.83
2023-02-22T03:27:56.294Z,5.43
2023-02-22T03:30:38.058Z,5.77
2023-02-22T03:33:20.476Z,5.90
2023-02-22T03:35:57.162Z,6.70
2023-02-22T03:38:30.401Z,7.07
2023-02-22T03:41:03.070Z,5.97
2023-02-22T03:43:51.103Z,8.03
2023-02-22T03:46:19.557Z,12.23
2023-02-22T03:49:03.003Z,10.53
2023-02-22T03:51:34.329Z,6.30
2023-02-22T03:54:04.161Z,6.57
2023-02-22T03:56:47.449Z,6.47
2023-02-22T03:59:16.235Z,6.00
2023-02-22T04:01:44.719Z,5.93
2023-02-22T04:04:12.271Z,7.20
2023-02-22T04:06:40.141Z,7.63
2023-02-22T04:09:08.667Z,8.77
2023-02-22T04:11:36.236Z,7.53
2023-02-22T04:14:04.486Z,9.97
2023-02-22T04:16:31.990Z,11.27
2023-02-22T04:19:00.308Z,10.60
2023-02-22T04:21:28.085Z,11.47
2023-02-22T04:23:55.691Z,9.57
2023-02-22T04:26:23.756Z,8.67
2023-02-22T04:28:55.515Z,11.07
2023-02-22T04:31:25.082Z,8.17
2023-02-22T04:33:54.561Z,10.73
2023-02-22T04:36:27.355Z,18.33
2023-02-22T04:38:55.208Z,14.50
2023-02-22T04:41:25.249Z,11.50
2023-02-22T04:43:53.305Z,10.87
2023-02-22T04:46:25.655Z,7.43
2023-02-22T04:48:54.718Z,9.83
2023-02-22T04:51:28.323Z,10.93
2023-02-22T04:54:17.639Z,14.13
2023-02-22T04:56:47.748Z,11.73
2023-02-22T04:59:15.397Z,7.73
2023-02-22T05:01:45.799Z,14.47
2023-02-22T05:04:13.553Z,12.33
2023-02-22T05:06:42.685Z,20.87
2023-02-22T05:09:10.183Z,17.33
2023-02-22T05:11:37.800Z,18.07
2023-02-22T05:14:08.309Z,17.20
2023-02-22T05:16:35.994Z,17.80
2023-02-22T05:19:04.091Z,11.80
2023-02-22T05:21:31.566Z,24.53
2023-02-22T05:23:59.031Z,14.53
2023-02-22T05:26:26.588Z,13.83
2023-02-22T05:28:54.027Z,13.83
2023-02-22T05:31:22.892Z,13.60
2023-02-22T05:33:50.445Z,13.40
2023-02-22T05:36:18.072Z,20.27
2023-02-22T05:38:45.553Z,23.67
2023-02-22T05:41:14.472Z,22.37
2023-02-22T05:43:42.682Z,21.07
2023-02-22T05:46:10.176Z,21.13
2023-02-22T05:48:37.740Z,20.87
2023-02-22T05:51:05.728Z,16.83
2023-02-22T05:53:33.439Z,40.97
2023-02-22T05:56:00.862Z,40.83
2023-02-22T05:58:28.523Z,47.13
2023-02-22T06:00:56.162Z,70.70
2023-02-22T06:03:23.609Z,31.87
2023-02-22T06:05:51.158Z,29.17
2023-02-22T06:08:18.577Z,31.40
2023-02-22T06:10:46.019Z,22.63
2023-02-22T06:13:13.547Z,22.60
2023-02-22T06:15:41.009Z,20.73
2023-02-22T06:18:08.527Z,17.13
2023-02-22T06:20:36.002Z,14.27
2023-02-22T06:23:03.492Z,24.73
2023-02-22T06:25:31.915Z,22.37
2023-02-22T06:28:00.892Z,23.33
2023-02-22T06:30:30.443Z,13.43
2023-02-22T06:32:58.301Z,16.47
2023-02-22T06:35:25.758Z,20.20
2023-02-22T06:37:53.566Z,16.53
2023-02-22T06:40:21.128Z,24.33
2023-02-22T06:42:50.006Z,27.60
2023-02-22T06:45:18.876Z,26.63
2023-02-22T06:47:47.194Z,35.57
2023-02-22T06:50:28.972Z,23.87
2023-02-22T06:52:57.639Z,22.63
2023-02-22T06:55:31.776Z,30.13
2023-02-22T06:58:00.539Z,18.73
2023-02-22T07:00:32.726Z,23.70
2023-02-22T07:03:01.084Z,19.00
2023-02-22T07:05:29.485Z,14.57
2023-02-22T07:08:05.440Z,12.83
2023-02-22T07:10:35.610Z,12.43
2023-02-22T07:13:05.139Z,15.83
2023-02-22T07:15:35.147Z,24.63
2023-02-22T07:18:03.288Z,17.70
2023-02-22T07:20:31.936Z,22.17
2023-02-22T07:23:01.319Z,30.00
2023-02-22T07:25:28.797Z,23.57
2023-02-22T07:27:56.377Z,11.73
2023-02-22T07:30:34.495Z,19.00
2023-02-22T07:33:06.216Z,11.93
2023-02-22T07:35:37.893Z,5.17
2023-02-22T07:38:08.180Z,7.83
2023-02-22T07:40:37.424Z,5.43
2023-02-22T07:43:29.653Z,5.73
2023-02-22T07:46:02.926Z,4.63
2023-02-22T07:48:32.736Z,4.10
2023-02-22T07:51:00.433Z,3.43
2023-02-22T07:53:31.711Z,4.27
2023-02-22T07:56:00.151Z,10.23
2023-02-22T07:58:30.888Z,5.27
2023-02-22T08:01:02.215Z,2.67
2023-02-22T08:03:36.486Z,3.33
2023-02-22T08:06:10.191Z,5.37
2023-02-22T08:08:37.653Z,4.13
2023-02-22T08:11:05.986Z,3.47
2023-02-22T08:13:33.752Z,4.23
2023-02-22T08:16:01.286Z,3.00
2023-02-22T08:18:28.770Z,5.63
2023-02-22T08:20:56.850Z,8.63
2023-02-22T08:23:27.099Z,6.10
2023-02-22T08:25:56.026Z,8.87
2023-02-22T08:28:25.344Z,3.43
2023-02-22T08:30:53.652Z,3.93
2023-02-22T08:33:21.861Z,5.20
2023-02-22T08:35:51.682Z,9.50
2023-02-22T08:38:34.134Z,4.90
2023-02-22T08:41:01.703Z,2.23
2023-02-22T08:43:29.165Z,4.23
2023-02-22T08:45:57.808Z,3.50
2023-02-22T08:48:25.510Z,4.17
2023-02-22T08:50:53.035Z,17.90
2023-02-22T08:53:20.605Z,3.80
2023-02-22T08:55:48.110Z,2.57
2023-02-22T08:58:15.748Z,3.63
2023-02-22T09:00:44.823Z,13.60
2023-02-22T09:03:16.285Z,8.83
2023-02-22T09:05:47.348Z,8.67
2023-02-22T09:08:17.530Z,28.73
2023-02-22T09:10:45.440Z,4.97
2023-02-22T09:13:13.447Z,6.67
2023-02-22T09:15:41.046Z,4.13
2023-02-22T09:18:12.490Z,30.13
2023-02-22T09:20:40.298Z,4.30
2023-02-22T09:23:11.923Z,6.17
2023-02-22T09:25:40.965Z,9.37
2023-02-22T09:28:09.181Z,14.03
2023-02-22T09:30:37.613Z,10.60
2023-02-22T09:33:13.686Z,3.27
2023-02-22T09:35:46.453Z,2.13
2023-02-22T09:38:22.869Z,2.73
2023-02-22T09:40:57.425Z,3.67
2023-02-22T09:43:24.892Z,6.13
2023-02-22T09:46:23.460Z,4.90
2023-02-22T09:49:07.831Z,3.73
2023-02-22T09:51:52.641Z,3.93
2023-02-22T09:54:34.288Z,2.57
2023-02-22T09:57:09.697Z,5.97
2023-02-22T09:59:46.466Z,4.73
2023-02-22T10:02:35.436Z,2.57
2023-02-22T10:05:18.413Z,4.70
2023-02-22T10:07:56.121Z,5.57
2023-02-22T10:10:27.003Z,1.30
2023-02-22T10:13:27.198Z,3.50
2023-02-22T10:16:12.394Z,1.77
2023-02-22T10:18:57.330Z,4.03
2023-02-22T10:22:01.360Z,2.50
2023-02-22T10:24:31.671Z,2.67
2023-02-22T10:27:00.419Z,2.57
2023-02-22T10:29:54.300Z,3.42
2023-02-22T10:32:45.461Z,1.20
2023-02-22T10:35:28.612Z,3.57
2023-02-22T10:38:26.714Z,1.83
2023-02-22T10:41:02.238Z,3.10
2023-02-22T10:43:31.861Z,1.73
2023-02-22T10:46:04.657Z,4.20
2023-02-22T10:48:37.795Z,2.47
2023-02-22T10:51:11.049Z,1.30
2023-02-22T10:53:39.488Z,3.15
2023-02-22T10:56:24.356Z,1.83
2023-02-22T10:58:59.795Z,2.60
2023-02-22T11:01:33.319Z,5.72
2023-02-22T11:04:16.779Z,3.75
2023-02-22T11:07:23.568Z,4.35
2023-02-22T11:10:08.932Z,3.53
2023-02-22T11:12:42.437Z,6.03
2023-02-22T11:15:19.023Z,3.60
2023-02-22T11:17:50.424Z,3.22
2023-02-22T11:20:35.650Z,9.38
2023-02-22T11:23:08.262Z,1.92
2023-02-22T11:25:40.228Z,4.60
2023-02-22T11:28:30.827Z,6.07
2023-02-22T11:31:22.885Z,4.60
2023-02-22T11:34:04.170Z,2.92
2023-02-22T11:36:51.209Z,2.50
2023-02-22T11:39:28.724Z,4.53
2023-02-22T11:41:57.390Z,3.10
2023-02-22T11:44:32.619Z,2.97
2023-02-22T11:47:07.076Z,1.85
2023-02-22T11:49:42.703Z,2.28
2023-02-22T11:52:30.617Z,4.90
2023-02-22T11:55:41.824Z,3.60
2023-02-22T11:58:46.147Z,3.85
2023-02-22T12:01:40.752Z,1.85
2023-02-22T12:04:49.711Z,1.50
2023-02-22T12:07:30.085Z,1.30
2023-02-22T12:10:06.519Z,3.17
2023-02-22T12:12:58.779Z,2.17
2023-02-22T12:15:48.762Z,2.03
2023-02-22T12:18:35.975Z,3.85
2023-02-22T12:21:12.665Z,3.22
2023-02-22T12:24:17.188Z,3.88
2023-02-22T12:26:56.938Z,1.75
2023-02-22T12:29:48.777Z,1.60
2023-02-22T12:32:47.304Z,2.13
2023-02-22T12:35:29.650Z,1.40
2023-02-22T12:38:24.797Z,3.22
2023-02-22T12:41:18.605Z,1.42
2023-02-22T12:43:58.494Z,2.08
2023-02-22T12:46:54.651Z,3.70
2023-02-22T12:49:39.677Z,1.40
2023-02-22T12:52:35.223Z,1.67
2023-02-22T12:55:22.122Z,2.03
2023-02-22T12:58:09.391Z,2.25
2023-02-22T13:00:56.875Z,6.05
2023-02-22T13:03:39.454Z,2.83
2023-02-22T13:06:32.430Z,3.40
2023-02-22T13:09:26.840Z,5.80
2023-02-22T13:12:08.999Z,3.25
2023-02-22T13:15:10.847Z,4.65
2023-02-22T13:18:23.197Z,2.28
2023-02-22T13:21:32.096Z,1.95
2023-02-22T13:24:12.579Z,1.30
2023-02-22T13:27:23.195Z,2.30
2023-02-22T13:29:59.037Z,2.67
2023-02-22T13:32:53.827Z,1.75
2023-02-22T13:35:56.734Z,2.97
2023-02-22T13:39:04.102Z,1.33
2023-02-22T13:41:52.596Z,3.90
2023-02-22T13:45:03.286Z,2.15
2023-02-22T13:48:09.845Z,1.20
2023-02-22T13:51:16.036Z,7.10
2023-02-22T13:53:49.510Z,2.05
2023-02-22T13:56:18.698Z,2.67
2023-02-22T13:59:02.701Z,1.30
2023-02-22T14:01:48.762Z,1.65
2023-02-22T14:04:28.278Z,1.13
2023-02-22T14:07:02.126Z,1.40
2023-02-22T14:09:51.231Z,5.07
2023-02-22T14:12:31.022Z,1.25
2023-02-22T14:15:28.212Z,2.03
2023-02-22T14:18:13.948Z,1.02
2023-02-22T14:20:43.833Z,2.72
2023-02-22T14:23:42.331Z,1.92
2023-02-22T14:26:28.916Z,2.78
2023-02-22T14:29:05.661Z,1.88
2023-02-22T14:32:08.010Z,2.58
2023-02-22T14:34:50.179Z,3.60
2023-02-22T14:37:24.964Z,2.22
2023-02-22T14:40:18.446Z,1.20
2023-02-22T14:42:53.030Z,2.38
2023-02-22T14:45:29.942Z,2.53
2023-02-22T14:48:36.879Z,2.17
2023-02-22T14:51:21.959Z,6.55
2023-02-22T14:54:09.344Z,0.90
2023-02-22T14:57:12.116Z,4.18
2023-02-22T15:00:08.001Z,0.95
2023-02-22T15:02:43.323Z,6.50
2023-02-22T15:05:15.714Z,2.35
2023-02-22T15:07:56.243Z,3.63
2023-02-22T15:10:39.346Z,5.70
2023-02-22T15:13:20.157Z,3.83
2023-02-22T15:16:00.366Z,2.17
2023-02-22T15:18:40.216Z,7.18
2023-02-22T15:21:13.452Z,2.45
2023-02-22T15:24:08.063Z,6.55
2023-02-22T15:26:59.248Z,11.35
2023-02-22T15:29:39.072Z,5.35
2023-02-22T15:32:49.895Z,1.60
2023-02-22T15:35:29.337Z,3.38
2023-02-22T15:38:21.653Z,5.18
2023-02-22T15:41:08.490Z,20.75
2023-02-22T15:43:38.594Z,8.27
2023-02-22T15:46:11.027Z,19.10
2023-02-22T15:48:41.294Z,8.18
2023-02-22T15:51:13.831Z,6.07
2023-02-22T15:53:53.332Z,17.35
2023-02-22T15:56:32.661Z,3.95
2023-02-22T15:59:23.927Z,1.98
2023-02-22T16:01:53.986Z,2.05
2023-02-22T16:04:29.910Z,2.78
2023-02-22T16:07:17.073Z,5.43
2023-02-22T16:09:50.736Z,9.25
2023-02-22T16:12:20.624Z,3.92
2023-02-22T16:14:50.049Z,14.10
2023-02-22T16:17:41.169Z,27.10
2023-02-22T16:20:18.221Z,33.10
2023-02-22T16:22:49.483Z,43.97
2023-02-22T16:25:21.625Z,60.38
2023-02-22T16:27:59.927Z,86.07
2023-02-22T16:30:33.288Z,36.95
2023-02-22T16:33:13.891Z,39.17
2023-02-22T16:35:51.741Z,14.85
2023-02-22T16:38:21.150Z,15.95
2023-02-22T16:40:53.973Z,11.35
2023-02-22T16:43:29.812Z,9.38
2023-02-22T16:45:58.198Z,7.40
2023-02-22T16:48:30.574Z,8.07
2023-02-22T16:51:07.942Z,9.13
2023-02-22T16:53:35.830Z,11.17
2023-02-22T16:56:09.134Z,8.90
2023-02-22T16:58:41.683Z,11.87
2023-02-22T17:01:15.601Z,11.73
2023-02-22T17:03:47.261Z,14.67
2023-02-22T17:06:14.888Z,10.93
2023-02-22T17:08:43.449Z,9.67
2023-02-22T17:11:13.361Z,17.70
2023-02-22T17:13:41.054Z,19.10
2023-02-22T17:16:16.922Z,17.27
2023-02-22T17:18:46.047Z,16.10
2023-02-22T17:21:16.863Z,15.03
2023-02-22T17:23:50.641Z,13.83
2023-02-22T17:26:21.195Z,16.93
2023-02-22T17:28:50.303Z,20.33
2023-02-22T17:31:25.304Z,20.60
2023-02-22T17:33:52.953Z,15.57
2023-02-22T17:36:24.159Z,12.93
2023-02-22T17:38:52.174Z,7.77
2023-02-22T17:41:19.955Z,7.43
2023-02-22T17:43:56.191Z,11.67
2023-02-22T17:46:26.692Z,9.53
2023-02-22T17:48:54.788Z,8.00
2023-02-22T17:51:27.287Z,7.67
2023-02-22T17:53:57.385Z,11.10
2023-02-22T17:56:27.018Z,10.50
2023-02-22T17:58:56.850Z,9.20
2023-02-22T18:01:30.713Z,10.23
2023-02-22T18:04:06.348Z,7.30
2023-02-22T18:06:36.262Z,9.57
2023-02-22T18:09:10.426Z,18.90
2023-02-22T18:11:40.708Z,39.73
2023-02-22T18:14:12.375Z,29.00
2023-02-22T18:16:41.248Z,17.37
2023-02-22T18:19:11.669Z,15.30
2023-02-22T18:21:39.251Z,8.77
2023-02-22T18:24:07.819Z,10.13
2023-02-22T18:26:39.007Z,15.30
2023-02-22T18:29:07.937Z,17.77
2023-02-22T18:31:35.442Z,15.67
2023-02-22T18:34:25.118Z,25.67
2023-02-22T18:36:55.186Z,18.63
2023-02-22T18:39:23.210Z,19.07
2023-02-22T18:41:50.952Z,11.70
2023-02-22T18:44:19.310Z,7.63
2023-02-22T18:46:47.224Z,7.87
2023-02-22T18:49:15.116Z,8.57
2023-02-22T18:51:43.742Z,7.73
2023-02-22T18:54:15.654Z,6.30
2023-02-22T18:56:43.957Z,3.53
2023-02-22T18:59:14.073Z,2.57
2023-02-22T19:01:49.287Z,1.90
2023-02-22T19:04:18.808Z,2.40
2023-02-22T19:06:49.904Z,5.60
2023-02-22T19:09:18.410Z,2.00
2023-02-22T19:11:47.675Z,4.03
2023-02-22T19:14:19.428Z,3.27
2023-02-22T19:16:52.177Z,4.60
2023-02-22T19:19:22.081Z,5.20
2023-02-22T19:21:54.022Z,4.77
2023-02-22T19:24:24.789Z,4.63
2023-02-22T19:26:57.569Z,4.33
2023-02-22T19:29:25.279Z,4.50
2023-02-22T19:31:53.846Z,3.57
2023-02-22T19:34:26.287Z,4.37
2023-02-22T19:36:54.059Z,3.60
2023-02-22T19:41:58.451Z,6.67
2023-02-22T19:44:29.157Z,3.83
2023-02-22T19:46:59.670Z,3.73
2023-02-22T19:49:30.188Z,3.00
2023-02-22T19:52:00.904Z,4.50
2023-02-22T19:54:30.787Z,6.17
2023-02-22T19:57:00.576Z,5.60
2023-02-22T19:59:31.245Z,7.77
2023-02-22T20:01:59.928Z,2.90
2023-02-22T20:04:30.890Z,2.70
2023-02-22T20:07:02.119Z,7.13
2023-02-22T20:09:36.623Z,4.07
2023-02-22T20:12:09.894Z,4.43
2023-02-22T20:14:39.621Z,3.73
2023-02-22T20:17:10.380Z,4.43
2023-02-22T20:19:40.514Z,6.30
2023-02-22T20:22:11.506Z,3.37
2023-02-22T20:24:39.241Z,3.47
2023-02-22T20:27:09.576Z,3.73
2023-02-22T20:29:37.990Z,5.33
2023-02-22T20:32:06.650Z,3.63
2023-02-22T20:34:37.388Z,3.90
2023-02-22T20:37:06.205Z,10.97
2023-02-22T20:39:33.693Z,5.13
2023-02-22T20:42:03.059Z,70.87
2023-02-22T20:44:30.685Z,155.57
2023-02-22T20:46:59.130Z,106.33
2023-02-22T20:49:27.369Z,29.53
2023-02-22T20:51:57.679Z,27.17
2023-02-22T20:54:25.238Z,13.57
2023-02-22T20:56:56.054Z,23.03
2023-02-22T20:59:26.548Z,62.40
2023-02-22T21:01:57.326Z,28.50
2023-02-22T21:04:24.963Z,20.40
2023-02-22T21:06:53.668Z,21.73
2023-02-22T21:09:22.166Z,18.37
2023-02-22T21:11:51.139Z,15.53
2023-02-22T21:14:19.867Z,12.27
2023-02-22T21:16:51.702Z,7.47
2023-02-22T21:19:27.627Z,6.87
2023-02-22T21:21:58.043Z,7.97
2023-02-22T21:24:29.168Z,7.20
2023-02-22T21:27:00.548Z,7.60
2023-02-22T21:29:30.213Z,6.47
2023-02-22T21:31:57.963Z,6.87
2023-02-22T21:34:26.245Z,4.73
2023-02-22T21:36:53.917Z,6.67
2023-02-22T21:39:22.716Z,9.30
2023-02-22T21:41:52.828Z,8.63
2023-02-22T21:44:21.911Z,7.53
2023-02-22T21:46:49.868Z,6.90
2023-02-22T21:49:18.430Z,11.00
2023-02-22T21:51:46.316Z,17.90
2023-02-22T21:54:14.311Z,16.43
2023-02-22T21:56:44.117Z,15.87
2023-02-22T21:59:15.551Z,8.57
2023-02-22T22:01:47.931Z,11.03
2023-02-22T22:04:21.657Z,7.23
2023-02-22T22:06:55.066Z,10.00
2023-02-22T22:09:23.710Z,11.57
2023-02-22T22:11:54.650Z,13.40
2023-02-22T22:14:25.678Z,6.60
2023-02-22T22:17:00.180Z,8.83
2023-02-22T22:19:30.035Z,9.13
2023-02-22T22:22:00.420Z,9.37
2023-02-22T22:24:32.128Z,18.83
2023-02-22T22:27:03.848Z,23.83
2023-02-22T22:29:34.570Z,14.47
2023-02-22T22:32:03.266Z,22.00
2023-02-22T22:34:31.147Z,23.47
2023-02-22T22:37:00.394Z,19.80
2023-02-22T22:39:29.557Z,18.50
2023-02-22T22:41:57.082Z,29.17
2023-02-22T22:44:24.618Z,21.57
2023-02-22T22:46:55.088Z,28.33
2023-02-22T22:49:25.462Z,18.47
2023-02-22T22:51:54.501Z,9.43
2023-02-22T22:54:21.986Z,15.50
2023-02-22T22:56:49.429Z,12.57
2023-02-22T22:59:17.992Z,8.57
2023-02-22T23:01:45.568Z,4.50
2023-02-22T23:04:16.590Z,6.30
2023-02-22T23:06:50.790Z,8.60
2023-02-22T23:09:20.774Z,3.73
2023-02-22T23:12:16.660Z,7.20
2023-02-22T23:14:47.070Z,6.83
2023-02-22T23:17:31.101Z,5.27
2023-02-22T23:19:58.951Z,6.47
2023-02-22T23:22:27.914Z,10.70
2023-02-22T23:24:55.343Z,26.10
2023-02-22T23:27:23.823Z,13.10
2023-02-22T23:29:52.495Z,12.53
2023-02-22T23:32:20.179Z,12.40
2023-02-22T23:34:49.872Z,10.63
2023-02-22T23:37:20.658Z,10.53
2023-02-22T23:39:50.897Z,9.17
2023-02-22T23:42:18.444Z,8.47
2023-02-22T23:44:46.227Z,7.47
2023-02-22T23:47:16.054Z,5.50
2023-02-22T23:49:49.400Z,7.27
2023-02-22T23:52:24.220Z,7.87
2023-02-22T23:54:54.088Z,7.90
2023-02-22T23:57:24.128Z,9.50
2023-02-22T23:59:52.775Z,9.70
